createdAt,value
2023-04-16T00:00:32.679Z,19.89
2023-04-16T00:01:32.698Z,19.90
2023-04-16T00:02:32.767Z,19.89
2023-04-16T00:03:32.924Z,19.90
2023-04-16T00:04:32.758Z,19.89
2023-04-16T00:05:32.756Z,19.89
2023-04-16T00:06:32.755Z,19.90
2023-04-16T00:07:32.773Z,19.89
2023-04-16T00:08:32.799Z,19.88
2023-04-16T00:09:32.803Z,19.90
2023-04-16T00:10:32.822Z,19.90
2023-04-16T00:11:32.844Z,19.91
2023-04-16T00:12:32.808Z,19.90
2023-04-16T00:13:32.875Z,19.90
2023-04-16T00:14:32.849Z,19.91
2023-04-16T00:15:32.898Z,19.91
2023-04-16T00:16:32.974Z,19.91
2023-04-16T00:17:32.971Z,19.91
2023-04-16T00:18:32.925Z,19.91
2023-04-16T00:19:32.945Z,19.90
2023-04-16T00:20:32.941Z,19.91
2023-04-16T00:21:32.982Z,19.91
2023-04-16T00:22:32.987Z,19.91
2023-04-16T00:23:33.008Z,19.91
2023-04-16T00:24:32.996Z,19.92
2023-04-16T00:25:33.028Z,19.91
2023-04-16T00:26:33.041Z,19.91
2023-04-16T00:27:33.063Z,19.91
2023-04-16T00:28:33.056Z,19.92
2023-04-16T00:29:33.073Z,19.92
2023-04-16T00:30:33.123Z,19.92
2023-04-16T00:31:33.111Z,19.92
2023-04-16T00:32:33.194Z,19.92
2023-04-16T00:33:33.151Z,19.91
2023-04-16T00:34:33.167Z,19.92
2023-04-16T00:35:33.212Z,19.92
2023-04-16T00:36:33.217Z,19.92
2023-04-16T00:37:33.249Z,19.93
2023-04-16T00:38:33.261Z,19.92
2023-04-16T00:39:33.247Z,19.92
2023-04-16T00:40:33.265Z,19.92
2023-04-16T00:41:33.285Z,19.91
2023-04-16T00:42:33.320Z,19.92
2023-04-16T00:43:33.342Z,19.92
2023-04-16T00:44:33.343Z,19.92
2023-04-16T00:45:33.342Z,19.92
2023-04-16T00:46:33.377Z,19.92
2023-04-16T00:47:33.463Z,19.93
2023-04-16T00:48:33.418Z,19.92
2023-04-16T00:49:33.409Z,19.93
2023-04-16T00:50:33.408Z,19.93
2023-04-16T00:51:33.439Z,19.93
2023-04-16T00:52:33.439Z,19.93
2023-04-16T00:53:33.449Z,19.93
2023-04-16T00:54:33.447Z,19.93
2023-04-16T00:55:33.466Z,19.93
2023-04-16T00:56:33.468Z,19.93
2023-04-16T00:57:33.551Z,19.93
2023-04-16T00:58:33.534Z,19.93
2023-04-16T00:59:33.540Z,19.93
2023-04-16T01:00:33.560Z,19.93
2023-04-16T01:01:33.637Z,19.93
2023-04-16T01:02:33.678Z,19.93
2023-04-16T01:03:33.699Z,19.93
2023-04-16T01:04:33.647Z,19.93
2023-04-16T01:05:33.637Z,19.93
2023-04-16T01:06:33.624Z,19.93
2023-04-16T01:07:33.649Z,19.93
2023-04-16T01:08:33.663Z,19.94
2023-04-16T01:09:33.670Z,19.93
2023-04-16T01:10:33.662Z,19.93
2023-04-16T01:11:33.718Z,19.93
2023-04-16T01:12:33.713Z,19.93
2023-04-16T01:13:33.786Z,19.93
2023-04-16T01:14:33.726Z,19.93
2023-04-16T01:15:33.791Z,19.93
2023-04-16T01:16:33.765Z,19.93
2023-04-16T01:17:33.774Z,19.94
2023-04-16T01:18:33.790Z,19.94
2023-04-16T01:19:33.805Z,19.93
2023-04-16T01:20:33.792Z,19.93
2023-04-16T01:21:33.815Z,19.94
2023-04-16T01:22:33.858Z,19.93
2023-04-16T01:23:33.835Z,19.94
2023-04-16T01:24:33.870Z,19.94
2023-04-16T01:25:33.893Z,19.95
2023-04-16T01:26:33.856Z,19.94
2023-04-16T01:27:33.916Z,19.94
2023-04-16T01:28:33.945Z,19.95
2023-04-16T01:29:33.901Z,19.94
2023-04-16T01:30:33.933Z,19.94
2023-04-16T01:31:33.997Z,19.94
2023-04-16T01:32:33.982Z,19.94
2023-04-16T01:33:33.963Z,19.94
2023-04-16T01:34:33.973Z,19.93
2023-04-16T01:35:33.994Z,19.93
2023-04-16T01:36:34.004Z,19.93
2023-04-16T01:37:34.007Z,19.94
2023-04-16T01:38:34.021Z,19.92
2023-04-16T01:39:34.042Z,19.92
2023-04-16T01:40:34.024Z,19.92
2023-04-16T01:41:34.056Z,19.93
2023-04-16T01:42:34.065Z,19.93
2023-04-16T01:43:34.083Z,19.93
2023-04-16T01:44:34.086Z,19.93
2023-04-16T01:45:34.123Z,19.93
2023-04-16T01:46:34.170Z,19.93
2023-04-16T01:47:34.205Z,19.92
2023-04-16T01:48:34.143Z,19.92
2023-04-16T01:49:34.145Z,19.93
2023-04-16T01:50:34.185Z,19.92
2023-04-16T01:51:34.165Z,19.92
2023-04-16T01:52:34.183Z,19.93
2023-04-16T01:53:36.527Z,19.92
2023-04-16T01:54:34.181Z,19.91
2023-04-16T01:55:34.206Z,19.92
2023-04-16T01:56:34.171Z,19.92
2023-04-16T01:57:34.165Z,19.92
2023-04-16T01:58:34.159Z,19.92
2023-04-16T01:59:34.172Z,19.92
2023-04-16T02:00:34.177Z,19.93
2023-04-16T02:01:34.138Z,19.93
2023-04-16T02:02:34.284Z,19.92
2023-04-16T02:03:34.294Z,19.93
2023-04-16T02:04:34.124Z,19.93
2023-04-16T02:05:34.153Z,19.93
2023-04-16T02:06:34.099Z,19.93
2023-04-16T02:07:34.087Z,19.93
2023-04-16T02:08:34.075Z,19.92
2023-04-16T02:09:34.069Z,19.92
2023-04-16T02:10:34.073Z,19.92
2023-04-16T02:11:34.091Z,19.92
2023-04-16T02:12:34.031Z,19.91
2023-04-16T02:13:34.044Z,19.92
2023-04-16T02:14:34.049Z,19.92
2023-04-16T02:15:34.051Z,19.92
2023-04-16T02:16:34.069Z,19.91
2023-04-16T02:17:34.040Z,19.91
2023-04-16T02:18:34.022Z,19.91
2023-04-16T02:19:33.993Z,19.91
2023-04-16T02:20:33.982Z,19.92
2023-04-16T02:21:34.011Z,19.92
2023-04-16T02:22:33.969Z,19.92
2023-04-16T02:23:33.973Z,19.92
2023-04-16T02:24:33.976Z,19.92
2023-04-16T02:25:33.968Z,19.91
2023-04-16T02:26:33.982Z,19.91
2023-04-16T02:27:33.937Z,19.92
2023-04-16T02:28:33.980Z,19.91
2023-04-16T02:29:33.941Z,19.90
2023-04-16T02:30:33.928Z,19.91
2023-04-16T02:31:33.973Z,19.90
2023-04-16T02:32:33.938Z,19.91
2023-04-16T02:33:33.938Z,19.90
2023-04-16T02:34:33.939Z,19.90
2023-04-16T02:35:33.880Z,19.90
2023-04-16T02:36:33.905Z,19.90
2023-04-16T02:37:33.899Z,19.90
2023-04-16T02:38:33.887Z,19.91
2023-04-16T02:39:33.880Z,19.90
2023-04-16T02:40:33.888Z,19.90
2023-04-16T02:41:33.866Z,19.91
2023-04-16T02:42:33.840Z,19.90
2023-04-16T02:43:33.838Z,19.90
2023-04-16T02:44:33.827Z,19.90
2023-04-16T02:45:33.869Z,19.90
2023-04-16T02:46:33.844Z,19.90
2023-04-16T02:47:33.856Z,19.90
2023-04-16T02:48:33.843Z,19.89
2023-04-16T02:49:33.799Z,19.90
2023-04-16T02:50:33.794Z,19.90
2023-04-16T02:51:33.787Z,19.90
2023-04-16T02:52:33.778Z,19.90
2023-04-16T02:53:33.786Z,19.89
2023-04-16T02:54:33.767Z,19.89
2023-04-16T02:55:33.791Z,19.89
2023-04-16T02:56:33.766Z,19.89
2023-04-16T02:57:33.780Z,19.89
2023-04-16T02:58:33.760Z,19.88
2023-04-16T02:59:33.741Z,19.89
2023-04-16T03:00:33.736Z,19.89
2023-04-16T03:01:33.804Z,19.90
2023-04-16T03:02:33.808Z,19.89
2023-04-16T03:03:33.724Z,19.89
2023-04-16T03:04:33.765Z,19.89
2023-04-16T03:05:33.675Z,19.89
2023-04-16T03:06:33.684Z,19.88
2023-04-16T03:07:33.687Z,19.89
2023-04-16T03:08:33.700Z,19.90
2023-04-16T03:09:33.700Z,19.89
2023-04-16T03:10:33.668Z,19.89
2023-04-16T03:11:33.685Z,19.89
2023-04-16T03:12:33.691Z,19.88
2023-04-16T03:13:33.679Z,19.89
2023-04-16T03:14:33.642Z,19.88
2023-04-16T03:15:33.667Z,19.88
2023-04-16T03:16:33.644Z,19.88
2023-04-16T03:17:33.674Z,19.88
2023-04-16T03:18:33.631Z,19.88
2023-04-16T03:19:33.627Z,19.87
2023-04-16T03:20:33.634Z,19.88
2023-04-16T03:21:33.620Z,19.88
2023-04-16T03:22:33.669Z,19.88
2023-04-16T03:23:33.614Z,19.88
2023-04-16T03:24:33.608Z,19.88
2023-04-16T03:25:33.557Z,19.87
2023-04-16T03:26:33.571Z,19.88
2023-04-16T03:27:33.578Z,19.88
2023-04-16T03:28:33.579Z,19.87
2023-04-16T03:29:33.547Z,19.87
2023-04-16T03:30:33.550Z,19.87
2023-04-16T03:31:33.577Z,19.87
2023-04-16T03:32:33.599Z,19.87
2023-04-16T03:33:33.587Z,19.87
2023-04-16T03:34:34.177Z,19.86
2023-04-16T03:35:33.657Z,19.87
2023-04-16T03:36:33.653Z,19.86
2023-04-16T03:37:33.694Z,19.86
2023-04-16T03:38:33.681Z,19.86
2023-04-16T03:39:33.709Z,19.86
2023-04-16T03:40:33.715Z,19.86
2023-04-16T03:41:33.786Z,19.86
2023-04-16T03:42:33.803Z,19.86
2023-04-16T03:43:33.792Z,19.86
2023-04-16T03:44:33.792Z,19.87
2023-04-16T03:45:33.825Z,19.86
2023-04-16T03:46:33.926Z,19.86
2023-04-16T03:47:33.971Z,19.86
2023-04-16T03:48:33.900Z,19.86
2023-04-16T03:49:33.941Z,19.86
2023-04-16T03:50:33.978Z,19.86
2023-04-16T03:51:33.973Z,19.86
2023-04-16T03:52:33.972Z,19.86
2023-04-16T03:53:34.005Z,19.86
2023-04-16T03:54:34.053Z,19.86
2023-04-16T03:55:34.043Z,19.87
2023-04-16T03:56:34.046Z,19.86
2023-04-16T03:57:34.117Z,19.86
2023-04-16T03:58:34.126Z,19.87
2023-04-16T03:59:34.155Z,19.86
2023-04-16T04:00:34.153Z,19.87
2023-04-16T04:01:34.274Z,19.87
2023-04-16T04:02:34.321Z,19.86
2023-04-16T04:03:34.453Z,19.86
2023-04-16T04:04:34.390Z,19.86
2023-04-16T04:05:34.246Z,19.86
2023-04-16T04:06:34.269Z,19.86
2023-04-16T04:07:34.258Z,19.87
2023-04-16T04:08:34.336Z,19.86
2023-04-16T04:09:34.343Z,19.87
2023-04-16T04:10:34.321Z,19.86
2023-04-16T04:11:34.348Z,19.87
2023-04-16T04:12:34.397Z,19.87
2023-04-16T04:13:34.414Z,19.87
2023-04-16T04:14:34.404Z,19.86
2023-04-16T04:15:34.461Z,19.86
2023-04-16T04:16:34.526Z,19.86
2023-04-16T04:17:34.522Z,19.86
2023-04-16T04:18:34.539Z,19.86
2023-04-16T04:19:34.576Z,19.86
2023-04-16T04:20:34.553Z,19.85
2023-04-16T04:21:34.603Z,19.85
2023-04-16T04:22:34.580Z,19.85
2023-04-16T04:23:34.620Z,19.86
2023-04-16T04:24:34.655Z,19.85
2023-04-16T04:25:34.656Z,19.84
2023-04-16T04:26:34.742Z,19.85
2023-04-16T04:27:34.728Z,19.85
2023-04-16T04:28:34.753Z,19.85
2023-04-16T04:29:34.763Z,19.86
2023-04-16T04:30:34.779Z,19.86
2023-04-16T04:31:34.845Z,19.86
2023-04-16T04:32:34.855Z,19.87
2023-04-16T04:33:34.845Z,19.86
2023-04-16T04:34:34.856Z,19.86
2023-04-16T04:35:34.882Z,19.85
2023-04-16T04:36:34.895Z,19.86
2023-04-16T04:37:34.897Z,19.85
2023-04-16T04:38:34.940Z,19.84
2023-04-16T04:39:34.968Z,19.85
2023-04-16T04:40:34.989Z,19.85
2023-04-16T04:41:35.005Z,19.85
2023-04-16T04:42:35.022Z,19.85
2023-04-16T04:43:35.022Z,19.84
2023-04-16T04:44:35.046Z,19.85
2023-04-16T04:45:35.122Z,19.85
2023-04-16T04:46:35.094Z,19.85
2023-04-16T04:47:35.128Z,19.85
2023-04-16T04:48:35.114Z,19.85
2023-04-16T04:49:35.163Z,19.84
2023-04-16T04:50:35.164Z,19.84
2023-04-16T04:51:35.179Z,19.84
2023-04-16T04:52:35.222Z,19.84
2023-04-16T04:53:35.225Z,19.84
2023-04-16T04:54:35.249Z,19.84
2023-04-16T04:55:35.261Z,19.85
2023-04-16T04:56:35.259Z,19.85
2023-04-16T04:57:35.306Z,19.85
2023-04-16T04:58:35.289Z,19.85
2023-04-16T04:59:35.316Z,19.85
2023-04-16T05:00:35.383Z,19.84
2023-04-16T05:01:35.408Z,19.84
2023-04-16T05:02:35.425Z,19.84
2023-04-16T05:03:35.538Z,19.84
2023-04-16T05:04:35.494Z,19.84
2023-04-16T05:05:35.468Z,19.84
2023-04-16T05:06:35.471Z,19.84
2023-04-16T05:07:35.520Z,19.84
2023-04-16T05:08:35.522Z,19.84
2023-04-16T05:09:35.531Z,19.84
2023-04-16T05:10:35.569Z,19.84
2023-04-16T05:11:35.589Z,19.84
2023-04-16T05:12:35.625Z,19.84
2023-04-16T05:13:35.618Z,19.84
2023-04-16T05:14:35.628Z,19.84
2023-04-16T05:15:35.684Z,19.84
2023-04-16T05:16:35.784Z,19.84
2023-04-16T05:17:35.864Z,19.84
2023-04-16T05:18:35.707Z,19.84
2023-04-16T05:19:35.708Z,19.85
2023-04-16T05:20:35.745Z,19.84
2023-04-16T05:21:35.756Z,19.84
2023-04-16T05:22:35.789Z,19.84
2023-04-16T05:23:35.816Z,19.85
2023-04-16T05:24:35.810Z,19.84
2023-04-16T05:25:35.866Z,19.84
2023-04-16T05:26:35.973Z,19.85
2023-04-16T05:27:35.872Z,19.85
2023-04-16T05:28:35.938Z,19.85
2023-04-16T05:29:35.904Z,19.85
2023-04-16T05:30:35.990Z,19.84
2023-04-16T05:31:35.945Z,19.85
2023-04-16T05:32:35.988Z,19.85
2023-04-16T05:33:35.982Z,19.85
2023-04-16T05:34:36.002Z,19.85
2023-04-16T05:35:36.009Z,19.85
2023-04-16T05:36:36.058Z,19.84
2023-04-16T05:37:36.107Z,19.85
2023-04-16T05:38:36.103Z,19.85
2023-04-16T05:39:36.100Z,19.85
2023-04-16T05:40:36.153Z,19.84
2023-04-16T05:41:36.162Z,19.84
2023-04-16T05:42:36.171Z,19.84
2023-04-16T05:43:36.223Z,19.85
2023-04-16T05:44:36.218Z,19.84
2023-04-16T05:45:36.190Z,19.83
2023-04-16T05:46:36.273Z,19.84
2023-04-16T05:47:36.312Z,19.84
2023-04-16T05:48:36.274Z,19.84
2023-04-16T05:49:36.272Z,19.84
2023-04-16T05:50:36.323Z,19.85
2023-04-16T05:51:36.332Z,19.85
2023-04-16T05:52:36.315Z,19.84
2023-04-16T05:53:36.381Z,19.85
2023-04-16T05:54:36.412Z,19.84
2023-04-16T05:55:36.410Z,19.84
2023-04-16T05:56:36.418Z,19.84
2023-04-16T05:57:36.422Z,19.84
2023-04-16T05:58:36.437Z,19.84
2023-04-16T05:59:36.481Z,19.84
2023-04-16T06:00:36.488Z,19.84
2023-04-16T06:01:36.504Z,19.85
2023-04-16T06:02:36.617Z,19.85
2023-04-16T06:03:36.641Z,19.85
2023-04-16T06:04:36.546Z,19.84
2023-04-16T06:05:36.668Z,19.85
2023-04-16T06:06:36.598Z,19.85
2023-04-16T06:07:36.600Z,19.85
2023-04-16T06:08:36.628Z,19.85
2023-04-16T06:09:36.618Z,19.85
2023-04-16T06:10:36.626Z,19.85
2023-04-16T06:11:36.645Z,19.85
2023-04-16T06:12:36.682Z,19.85
2023-04-16T06:13:36.709Z,19.85
2023-04-16T06:14:36.702Z,19.86
2023-04-16T06:15:36.740Z,19.86
2023-04-16T06:16:36.744Z,19.85
2023-04-16T06:17:36.804Z,19.86
2023-04-16T06:18:36.772Z,19.85
2023-04-16T06:19:36.792Z,19.85
2023-04-16T06:20:36.812Z,19.86
2023-04-16T06:21:36.840Z,19.86
2023-04-16T06:22:36.827Z,19.85
2023-04-16T06:23:36.874Z,19.86
2023-04-16T06:24:36.930Z,19.86
2023-04-16T06:25:36.928Z,19.86
2023-04-16T06:26:36.920Z,19.86
2023-04-16T06:27:36.928Z,19.86
2023-04-16T06:28:36.937Z,19.86
2023-04-16T06:29:41.179Z,19.86
2023-04-16T06:30:36.964Z,19.86
2023-04-16T06:31:37.004Z,19.86
2023-04-16T06:32:37.015Z,19.86
2023-04-16T06:33:36.921Z,19.86
2023-04-16T06:34:36.919Z,19.86
2023-04-16T06:35:36.942Z,19.87
2023-04-16T06:36:36.904Z,19.87
2023-04-16T06:37:36.904Z,19.87
2023-04-16T06:38:36.920Z,19.87
2023-04-16T06:39:36.874Z,19.88
2023-04-16T06:40:36.869Z,19.87
2023-04-16T06:41:36.890Z,19.87
2023-04-16T06:42:36.873Z,19.88
2023-04-16T06:43:36.877Z,19.88
2023-04-16T06:44:36.870Z,19.87
2023-04-16T06:45:36.853Z,19.88
2023-04-16T06:46:36.875Z,19.88
2023-04-16T06:47:36.976Z,19.87
2023-04-16T06:48:36.855Z,19.88
2023-04-16T06:49:36.834Z,19.88
2023-04-16T06:50:36.818Z,19.88
2023-04-16T06:51:36.789Z,19.88
2023-04-16T06:52:36.852Z,19.88
2023-04-16T06:53:36.805Z,19.88
2023-04-16T06:54:36.817Z,19.88
2023-04-16T06:55:36.782Z,19.88
2023-04-16T06:56:36.783Z,19.88
2023-04-16T06:57:37.563Z,19.88
2023-04-16T06:58:36.745Z,19.88
2023-04-16T06:59:36.788Z,19.88
2023-04-16T07:00:36.776Z,19.88
2023-04-16T07:01:36.722Z,19.89
2023-04-16T07:02:36.909Z,19.89
2023-04-16T07:03:36.914Z,19.89
2023-04-16T07:04:36.738Z,19.89
2023-04-16T07:05:36.707Z,19.89
2023-04-16T07:06:36.727Z,19.89
2023-04-16T07:07:36.753Z,19.90
2023-04-16T07:08:36.782Z,19.89
2023-04-16T07:09:36.791Z,19.89
2023-04-16T07:10:36.812Z,19.89
2023-04-16T07:11:36.797Z,19.89
2023-04-16T07:12:36.814Z,19.88
2023-04-16T07:13:36.829Z,19.88
2023-04-16T07:14:36.826Z,19.89
2023-04-16T07:15:36.888Z,19.88
2023-04-16T07:16:36.981Z,19.88
2023-04-16T07:17:36.919Z,19.89
2023-04-16T07:18:36.920Z,19.88
2023-04-16T07:19:36.946Z,19.89
2023-04-16T07:20:36.946Z,19.89
2023-04-16T07:21:36.967Z,19.88
2023-04-16T07:22:36.955Z,19.89
2023-04-16T07:23:36.985Z,19.89
2023-04-16T07:24:37.020Z,19.89
2023-04-16T07:25:37.003Z,19.88
2023-04-16T07:26:37.029Z,19.90
2023-04-16T07:27:37.069Z,19.89
2023-04-16T07:28:37.085Z,19.89
2023-04-16T07:29:37.090Z,19.89
2023-04-16T07:30:37.110Z,19.89
2023-04-16T07:31:37.167Z,19.88
2023-04-16T07:32:37.183Z,19.90
2023-04-16T07:33:37.187Z,19.89
2023-04-16T07:34:37.154Z,19.89
2023-04-16T07:35:37.198Z,19.88
2023-04-16T07:36:37.185Z,19.90
2023-04-16T07:37:37.205Z,19.90
2023-04-16T07:38:37.234Z,19.89
2023-04-16T07:39:37.252Z,19.91
2023-04-16T07:40:37.262Z,19.90
2023-04-16T07:41:37.289Z,19.90
2023-04-16T07:42:37.287Z,19.90
2023-04-16T07:43:37.327Z,19.91
2023-04-16T07:44:37.300Z,19.91
2023-04-16T07:45:37.377Z,19.91
2023-04-16T07:46:46.425Z,19.91
2023-04-16T07:47:38.381Z,19.90
2023-04-16T07:48:37.317Z,19.90
2023-04-16T07:49:37.323Z,19.90
2023-04-16T07:50:37.317Z,19.90
2023-04-16T07:51:37.318Z,19.89
2023-04-16T07:52:37.301Z,19.90
2023-04-16T07:53:37.323Z,19.90
2023-04-16T07:54:37.278Z,19.90
2023-04-16T07:55:37.266Z,19.90
2023-04-16T07:56:37.272Z,19.90
2023-04-16T07:57:37.268Z,19.91
2023-04-16T07:58:37.245Z,19.90
2023-04-16T07:59:37.265Z,19.91
2023-04-16T08:00:37.253Z,19.90
2023-04-16T08:01:37.222Z,19.91
2023-04-16T08:02:37.267Z,19.91
2023-04-16T08:03:37.544Z,19.91
2023-04-16T08:04:37.490Z,19.91
2023-04-16T08:05:37.191Z,19.91
2023-04-16T08:06:37.216Z,19.92
2023-04-16T08:07:37.194Z,19.93
2023-04-16T08:08:37.218Z,19.92
2023-04-16T08:09:37.197Z,19.92
2023-04-16T08:10:37.153Z,19.93
2023-04-16T08:11:37.163Z,19.92
2023-04-16T08:12:37.168Z,19.92
2023-04-16T08:13:37.200Z,19.92
2023-04-16T08:14:37.158Z,19.93
2023-04-16T08:15:37.212Z,19.94
2023-04-16T08:16:37.154Z,19.93
2023-04-16T08:17:37.208Z,19.93
2023-04-16T08:18:37.162Z,19.93
2023-04-16T08:19:37.210Z,19.93
2023-04-16T08:20:37.209Z,19.93
2023-04-16T08:21:37.212Z,19.93
2023-04-16T08:22:37.241Z,19.93
2023-04-16T08:23:37.257Z,19.92
2023-04-16T08:24:37.264Z,19.93
2023-04-16T08:25:37.276Z,19.93
2023-04-16T08:26:37.257Z,19.93
2023-04-16T08:27:37.309Z,19.93
2023-04-16T08:28:37.311Z,19.93
2023-04-16T08:29:37.328Z,19.93
2023-04-16T08:30:37.328Z,19.93
2023-04-16T08:31:37.379Z,19.93
2023-04-16T08:32:37.401Z,19.93
2023-04-16T08:33:37.378Z,19.93
2023-04-16T08:34:37.353Z,19.93
2023-04-16T08:35:37.348Z,19.93
2023-04-16T08:36:37.392Z,19.93
2023-04-16T08:37:37.414Z,19.93
2023-04-16T08:38:37.416Z,19.93
2023-04-16T08:39:37.449Z,19.93
2023-04-16T08:40:37.507Z,19.94
2023-04-16T08:41:37.469Z,19.93
2023-04-16T08:42:37.495Z,19.93
2023-04-16T08:43:37.484Z,19.93
2023-04-16T08:44:37.503Z,19.93
2023-04-16T08:45:37.524Z,19.93
2023-04-16T08:46:37.546Z,19.93
2023-04-16T08:47:37.584Z,19.93
2023-04-16T08:48:37.567Z,19.94
2023-04-16T08:49:37.555Z,19.94
2023-04-16T08:50:37.571Z,19.93
2023-04-16T08:51:37.575Z,19.94
2023-04-16T08:52:37.601Z,19.95
2023-04-16T08:53:37.571Z,19.95
2023-04-16T08:54:37.631Z,19.95
2023-04-16T08:55:37.621Z,19.95
2023-04-16T08:56:37.612Z,19.95
2023-04-16T08:57:37.637Z,19.94
2023-04-16T08:58:37.642Z,19.95
2023-04-16T08:59:37.653Z,19.94
2023-04-16T09:00:37.675Z,19.95
2023-04-16T09:01:37.738Z,19.94
2023-04-16T09:02:38.074Z,19.94
2023-04-16T09:03:37.881Z,19.94
2023-04-16T09:04:37.789Z,19.94
2023-04-16T09:05:37.736Z,19.95
2023-04-16T09:06:37.778Z,19.95
2023-04-16T09:07:37.756Z,19.94
2023-04-16T09:08:37.778Z,19.94
2023-04-16T09:09:37.787Z,19.94
2023-04-16T09:10:37.804Z,19.95
2023-04-16T09:11:37.781Z,19.94
2023-04-16T09:12:37.802Z,19.95
2023-04-16T09:13:37.816Z,19.95
2023-04-16T09:14:37.823Z,19.96
2023-04-16T09:15:37.847Z,19.96
2023-04-16T09:16:37.945Z,19.95
2023-04-16T09:17:37.930Z,19.95
2023-04-16T09:18:37.895Z,19.96
2023-04-16T09:19:37.909Z,19.95
2023-04-16T09:20:37.922Z,19.95
2023-04-16T09:21:37.891Z,19.96
2023-04-16T09:22:37.933Z,19.96
2023-04-16T09:23:37.941Z,19.96
2023-04-16T09:24:37.940Z,19.95
2023-04-16T09:25:37.966Z,19.96
2023-04-16T09:26:37.960Z,19.96
2023-04-16T09:27:38.012Z,19.96
2023-04-16T09:28:38.013Z,19.97
2023-04-16T09:29:37.993Z,19.96
2023-04-16T09:30:38.038Z,19.96
2023-04-16T09:31:38.126Z,19.96
2023-04-16T09:32:38.090Z,19.96
2023-04-16T09:33:38.081Z,19.96
2023-04-16T09:34:38.070Z,19.95
2023-04-16T09:35:38.085Z,19.95
2023-04-16T09:36:38.100Z,19.95
2023-04-16T09:37:38.110Z,19.95
2023-04-16T09:38:38.112Z,19.96
2023-04-16T09:39:38.118Z,19.96
2023-04-16T09:40:38.122Z,19.96
2023-04-16T09:41:38.157Z,19.96
2023-04-16T09:42:38.175Z,19.96
2023-04-16T09:43:38.149Z,19.96
2023-04-16T09:44:38.170Z,19.96
2023-04-16T09:45:38.210Z,19.96
2023-04-16T09:46:38.196Z,19.96
2023-04-16T09:47:38.304Z,19.97
2023-04-16T09:48:38.215Z,19.96
2023-04-16T09:49:38.213Z,19.96
2023-04-16T09:50:38.218Z,19.96
2023-04-16T09:51:38.252Z,19.97
2023-04-16T09:52:38.238Z,19.97
2023-04-16T09:53:38.263Z,19.96
2023-04-16T09:54:38.274Z,19.97
2023-04-16T09:55:38.259Z,19.96
2023-04-16T09:56:38.275Z,19.97
2023-04-16T09:57:38.311Z,19.97
2023-04-16T09:58:38.298Z,19.96
2023-04-16T09:59:38.318Z,19.97
2023-04-16T10:00:42.158Z,19.97
2023-04-16T10:01:39.349Z,19.97
2023-04-16T10:02:38.386Z,19.98
2023-04-16T10:03:38.629Z,19.97
2023-04-16T10:04:38.310Z,19.98
2023-04-16T10:05:38.287Z,19.97
2023-04-16T10:06:38.302Z,19.98
2023-04-16T10:07:38.255Z,19.98
2023-04-16T10:08:38.299Z,19.97
2023-04-16T10:09:38.270Z,19.97
2023-04-16T10:10:38.266Z,19.97
2023-04-16T10:11:38.267Z,19.97
2023-04-16T10:12:38.256Z,19.97
2023-04-16T10:13:38.247Z,19.97
2023-04-16T10:14:38.211Z,19.97
2023-04-16T10:15:38.231Z,19.98
2023-04-16T10:16:38.224Z,19.98
2023-04-16T10:17:38.230Z,19.99
2023-04-16T10:18:38.215Z,19.98
2023-04-16T10:19:38.213Z,19.98
2023-04-16T10:20:38.188Z,19.98
2023-04-16T10:21:38.212Z,19.97
2023-04-16T10:22:38.200Z,19.97
2023-04-16T10:23:38.185Z,19.98
2023-04-16T10:24:38.174Z,19.98
2023-04-16T10:25:38.169Z,19.98
2023-04-16T10:26:38.151Z,19.98
2023-04-16T10:27:38.133Z,19.98
2023-04-16T10:28:38.158Z,19.99
2023-04-16T10:29:38.140Z,19.99
2023-04-16T10:30:38.138Z,19.99
2023-04-16T10:31:38.132Z,19.99
2023-04-16T10:32:38.184Z,19.99
2023-04-16T10:33:38.174Z,19.99
2023-04-16T10:34:38.162Z,19.99
2023-04-16T10:35:38.130Z,20.00
2023-04-16T10:36:38.153Z,19.99
2023-04-16T10:37:38.788Z,19.99
2023-04-16T10:38:38.210Z,19.99
2023-04-16T10:39:38.194Z,19.99
2023-04-16T10:40:38.190Z,19.99
2023-04-16T10:41:38.182Z,19.99
2023-04-16T10:42:38.200Z,19.99
2023-04-16T10:43:38.219Z,19.99
2023-04-16T10:44:38.225Z,19.99
2023-04-16T10:45:38.259Z,19.99
2023-04-16T10:46:38.257Z,19.99
2023-04-16T10:47:38.305Z,19.99
2023-04-16T10:48:48.717Z,19.99
2023-04-16T10:49:39.235Z,19.98
2023-04-16T10:50:38.228Z,19.98
2023-04-16T10:51:38.212Z,19.98
2023-04-16T10:52:38.227Z,19.98
2023-04-16T10:53:38.190Z,19.98
2023-04-16T10:54:38.216Z,19.98
2023-04-16T10:55:38.218Z,19.98
2023-04-16T10:56:38.237Z,19.99
2023-04-16T10:57:38.167Z,19.98
2023-04-16T10:58:38.169Z,19.98
2023-04-16T10:59:38.153Z,19.99
2023-04-16T11:00:38.152Z,19.99
2023-04-16T11:01:38.222Z,19.99
2023-04-16T11:02:38.458Z,19.99
2023-04-16T11:03:38.409Z,19.98
2023-04-16T11:04:38.299Z,19.99
2023-04-16T11:05:38.112Z,19.99
2023-04-16T11:06:38.133Z,19.99
2023-04-16T11:07:38.104Z,20.00
2023-04-16T11:08:51.112Z,19.99
2023-04-16T11:09:39.092Z,19.98
2023-04-16T11:10:38.093Z,19.98
2023-04-16T11:11:38.091Z,19.98
2023-04-16T11:12:38.468Z,19.97
2023-04-16T11:13:38.074Z,19.98
2023-04-16T11:14:38.063Z,19.98
2023-04-16T11:15:38.076Z,19.98
2023-04-16T11:16:38.056Z,19.98
2023-04-16T11:17:38.127Z,19.99
2023-04-16T11:18:38.075Z,19.98
2023-04-16T11:19:39.013Z,19.97
2023-04-16T11:20:38.033Z,19.98
2023-04-16T11:21:38.002Z,19.98
2023-04-16T11:22:38.037Z,19.98
2023-04-16T11:23:38.017Z,19.99
2023-04-16T11:24:38.007Z,19.98
2023-04-16T11:25:38.012Z,19.98
2023-04-16T11:26:38.006Z,19.98
2023-04-16T11:27:38.021Z,19.98
2023-04-16T11:28:37.991Z,19.99
2023-04-16T11:29:37.972Z,19.98
2023-04-16T11:30:37.977Z,19.98
2023-04-16T11:31:37.987Z,19.98
2023-04-16T11:32:37.992Z,19.98
2023-04-16T11:33:37.946Z,19.98
2023-04-16T11:34:37.972Z,19.98
2023-04-16T11:35:37.929Z,19.97
2023-04-16T11:36:37.956Z,19.98
2023-04-16T11:37:37.945Z,19.98
2023-04-16T11:38:38.896Z,19.98
2023-04-16T11:39:37.923Z,19.98
2023-04-16T11:40:37.929Z,19.98
2023-04-16T11:41:37.924Z,19.98
2023-04-16T11:42:37.945Z,19.98
2023-04-16T11:43:37.899Z,19.99
2023-04-16T11:44:37.893Z,19.98
2023-04-16T11:45:37.902Z,19.98
2023-04-16T11:46:37.951Z,19.99
2023-04-16T11:47:37.908Z,19.99
2023-04-16T11:48:37.878Z,19.99
2023-04-16T11:49:37.841Z,19.99
2023-04-16T11:50:37.827Z,19.98
2023-04-16T11:51:37.837Z,19.99
2023-04-16T11:52:37.850Z,20.00
2023-04-16T11:53:38.346Z,20.00
2023-04-16T11:54:37.820Z,20.00
2023-04-16T11:55:37.833Z,20.00
2023-04-16T11:56:37.838Z,20.00
2023-04-16T11:57:37.854Z,20.00
2023-04-16T11:58:37.875Z,20.00
2023-04-16T12:00:02.381Z,19.99
2023-04-16T12:00:38.871Z,19.99
2023-04-16T12:01:37.877Z,19.99
2023-04-16T12:02:38.067Z,19.99
2023-04-16T12:03:38.137Z,19.99
2023-04-16T12:04:37.964Z,19.99
2023-04-16T12:05:37.808Z,19.99
2023-04-16T12:06:37.818Z,19.99
2023-04-16T12:07:37.804Z,19.99
2023-04-16T12:08:37.816Z,19.99
2023-04-16T12:09:40.211Z,20.00
2023-04-16T12:10:37.802Z,20.00
2023-04-16T12:11:37.806Z,19.99
2023-04-16T12:12:37.780Z,19.99
2023-04-16T12:13:37.785Z,19.99
2023-04-16T12:14:37.775Z,19.99
2023-04-16T12:15:37.768Z,19.99
2023-04-16T12:16:37.793Z,19.99
2023-04-16T12:17:37.818Z,19.99
2023-04-16T12:18:37.764Z,19.99
2023-04-16T12:19:37.712Z,20.00
2023-04-16T12:20:37.742Z,20.00
2023-04-16T12:21:37.744Z,20.00
2023-04-16T12:22:37.744Z,20.00
2023-04-16T12:23:37.725Z,19.98
2023-04-16T12:24:37.682Z,19.99
2023-04-16T12:25:37.717Z,19.99
2023-04-16T12:26:37.668Z,19.99
2023-04-16T12:27:37.702Z,19.98
2023-04-16T12:28:37.671Z,19.98
2023-04-16T12:29:37.684Z,19.99
2023-04-16T12:30:37.710Z,19.99
2023-04-16T12:31:37.658Z,19.99
2023-04-16T12:32:37.724Z,19.99
2023-04-16T12:33:37.666Z,19.99
2023-04-16T12:34:49.472Z,19.99
2023-04-16T12:35:38.623Z,19.98
2023-04-16T12:36:37.633Z,19.98
2023-04-16T12:37:37.601Z,19.98
2023-04-16T12:38:37.639Z,19.97
2023-04-16T12:39:37.625Z,19.98
2023-04-16T12:40:37.719Z,19.98
2023-04-16T12:41:37.565Z,19.98
2023-04-16T12:42:37.575Z,19.98
2023-04-16T12:43:37.589Z,19.98
2023-04-16T12:44:37.563Z,19.97
2023-04-16T12:45:37.598Z,19.97
2023-04-16T12:46:37.640Z,19.98
2023-04-16T12:47:37.631Z,19.97
2023-04-16T12:48:37.530Z,19.97
2023-04-16T12:49:37.525Z,19.98
2023-04-16T12:50:37.532Z,19.97
2023-04-16T12:51:37.542Z,19.98
2023-04-16T12:52:37.537Z,19.98